Pineville, MO (64856)

9:34 PM CST on February 08, 2016 (GMT -0600)
Brush Creek | | Change Station
CLOSE
Current Station
Personal Weather Station
Location: Noel, MO
Elevation: 1056 ft
Nearby Weather Stations

Elev 1056 ft 36.51 °N, 94.34 °W | Updated 11 seconds ago

Clear
Clear
33.1 °F
Feels Like 27 °F
N
7.4
Wind Variable Wind from WNW
Gusts 9.8 mph

Today
High -- | Low -- °F
--% Chance of Precip.
Yesterday
High -- | Low -- °F
Precip. -- in
Pressure 30.11 in
Visibility 10.0 miles
Clouds Clear
Windchill 27 °F
Dew Point 8 °F
Humidity 35%
Rainfall 0.00 in
Snow Depth Not available.
7:13 AM 5:50 PM
New Moon, 0% visible
METAR KVBT 090315Z AUTO 32009KT 270V330 10SM CLR 00/M12 A3011 RMK AO1
Pressure 30.11 in
Visibility 10.0 miles
Clouds Clear
Windchill 27 °F
Dew Point 8 °F
Humidity 35%
Rainfall 0.00 in
Snow Depth Not available.
7:13 AM 5:50 PM
New Moon, 0% visible
METAR KVBT 090315Z AUTO 32009KT 270V330 10SM CLR 00/M12 A3011 RMK AO1

10-Day Weather Forecast

Almanac

Astronomy

Feb. 08, 2016 Rise Set
Actual Time
Civil Twilight
Nautical Twilight
Astronomical Twilight
Moon
Length of Visible Light
Length of Day
Tomorrow will be .
, % of the Moon is Illuminated

Today's Extremes

State Highs State Lows

Community

WunderPhotos

Upload Photos

1,891,527 photos uploaded!

WunderBlog® & News

Nearby

Air Quality

  Air Quality AQ Index Pollutant
Not available.

Snow Depth

Station Depth Elevation

Earthquake Activity

City Distance Mag. Time & Date
Minimum magnitude displayed is 2.5.

Coastal Water Temperatures

Place Temperature

Stations

Nearby Weather Stations

Station Location Temp. Windchill Dew Point Humidity Wind Precip. Elev Updated Type
                   

Watches & Warnings

There are currently no watches in effect.